createdAt,value
2023-06-07T00:01:18.503Z,76.75
2023-06-07T00:03:46.120Z,76.86
2023-06-07T00:06:15.143Z,77.03
2023-06-07T00:08:44.153Z,76.85
2023-06-07T00:11:10.804Z,76.99
2023-06-07T00:13:37.982Z,77.46
2023-06-07T00:16:04.768Z,77.63
2023-06-07T00:18:31.379Z,77.42
2023-06-07T00:20:58.695Z,78.09
2023-06-07T00:23:27.842Z,78.31
2023-06-07T00:25:54.405Z,78.25
2023-06-07T00:28:21.000Z,77.81
2023-06-07T00:30:47.528Z,77.86
2023-06-07T00:33:14.197Z,77.59
2023-06-07T00:35:40.880Z,78.08
2023-06-07T00:38:07.489Z,78.83
2023-06-07T00:40:34.026Z,78.55
2023-06-07T00:43:00.595Z,78.12
2023-06-07T00:45:27.124Z,78.16
2023-06-07T00:47:53.827Z,78.51
2023-06-07T00:50:20.703Z,78.50
2023-06-07T00:52:47.287Z,78.96
2023-06-07T00:55:14.448Z,79.08
2023-06-07T00:57:42.308Z,78.99
2023-06-07T01:00:14.923Z,78.93
2023-06-07T01:02:42.813Z,78.69
2023-06-07T01:05:09.666Z,78.95
2023-06-07T01:07:36.138Z,79.05
2023-06-07T01:10:03.915Z,79.47
2023-06-07T01:12:31.293Z,79.34
2023-06-07T01:14:58.074Z,79.42
2023-06-07T01:17:25.636Z,79.57
2023-06-07T01:19:54.354Z,79.50
2023-06-07T01:22:25.958Z,79.47
2023-06-07T01:24:53.650Z,79.85
2023-06-07T01:27:22.973Z,79.84
2023-06-07T01:29:51.595Z,79.72
2023-06-07T01:32:18.842Z,80.28
2023-06-07T01:34:46.406Z,80.14
2023-06-07T01:37:13.011Z,80.48
2023-06-07T01:39:41.363Z,80.78
2023-06-07T01:42:10.132Z,80.39
2023-06-07T01:44:39.895Z,80.75
2023-06-07T01:47:07.594Z,80.86
2023-06-07T01:49:34.155Z,80.43
2023-06-07T01:52:00.709Z,80.29
2023-06-07T01:54:27.218Z,80.88
2023-06-07T01:57:17.733Z,80.75
2023-06-07T01:59:56.220Z,80.74
2023-06-07T02:02:34.918Z,81.19
2023-06-07T02:05:08.201Z,81.72
2023-06-07T02:07:43.109Z,81.66
2023-06-07T02:10:10.608Z,81.60
2023-06-07T02:12:38.357Z,82.02
2023-06-07T02:15:05.884Z,82.24
2023-06-07T02:17:33.311Z,82.25
2023-06-07T02:19:59.911Z,82.40
2023-06-07T02:22:26.894Z,82.33
2023-06-07T02:24:53.613Z,83.10
2023-06-07T02:27:20.119Z,82.90
2023-06-07T02:29:46.605Z,82.95
2023-06-07T02:32:13.100Z,82.87
2023-06-07T02:34:40.609Z,83.12
2023-06-07T02:37:07.168Z,82.82
2023-06-07T02:39:33.731Z,82.48
2023-06-07T02:42:00.251Z,83.34
2023-06-07T02:44:26.819Z,83.74
2023-06-07T02:46:53.366Z,84.08
2023-06-07T02:49:20.062Z,84.43
2023-06-07T02:51:46.574Z,84.17
2023-06-07T02:54:14.648Z,84.52
2023-06-07T02:56:41.107Z,84.64
2023-06-07T02:59:07.593Z,84.29
2023-06-07T03:01:34.536Z,84.37
2023-06-07T03:04:01.211Z,84.92
2023-06-07T03:06:30.552Z,84.69
2023-06-07T03:08:57.825Z,84.54
2023-06-07T03:11:24.396Z,84.66
2023-06-07T03:13:51.083Z,84.20
2023-06-07T03:16:17.705Z,84.51
2023-06-07T03:18:44.264Z,84.99
2023-06-07T03:21:10.784Z,84.99
2023-06-07T03:23:37.460Z,85.15
2023-06-07T03:26:04.059Z,85.20
2023-06-07T03:28:31.063Z,85.66
2023-06-07T03:30:57.651Z,85.68
2023-06-07T03:33:24.190Z,85.50
2023-06-07T03:35:51.124Z,85.34
2023-06-07T03:38:17.599Z,85.37
2023-06-07T03:40:44.136Z,85.85
2023-06-07T03:43:10.730Z,85.68
2023-06-07T03:45:37.269Z,85.87
2023-06-07T03:48:04.085Z,85.86
2023-06-07T03:50:30.791Z,85.71
2023-06-07T03:52:57.295Z,86.09
2023-06-07T03:55:23.781Z,86.08
2023-06-07T03:57:51.056Z,86.18
2023-06-07T04:00:18.885Z,86.49
2023-06-07T04:02:45.653Z,86.61
2023-06-07T04:05:13.864Z,86.41
2023-06-07T04:07:41.782Z,85.84
2023-06-07T04:10:08.536Z,86.07
2023-06-07T04:12:35.114Z,86.46
2023-06-07T04:15:01.608Z,86.44
2023-06-07T04:17:28.257Z,85.88
2023-06-07T04:19:57.529Z,86.05
2023-06-07T04:22:25.677Z,86.28
2023-06-07T04:24:52.955Z,86.81
2023-06-07T04:27:19.757Z,86.98
2023-06-07T04:29:50.690Z,86.75
2023-06-07T04:32:20.077Z,87.44
2023-06-07T04:34:47.509Z,87.60
2023-06-07T04:37:14.190Z,86.56
2023-06-07T04:39:42.304Z,86.65
2023-06-07T04:42:10.468Z,86.72
2023-06-07T04:44:38.284Z,87.52
2023-06-07T04:47:09.900Z,86.82
2023-06-07T04:49:39.612Z,86.24
2023-06-07T04:52:06.807Z,85.52
2023-06-07T04:54:37.817Z,85.91
2023-06-07T04:57:05.528Z,85.65
2023-06-07T04:59:36.021Z,85.74
2023-06-07T05:02:03.165Z,85.27
2023-06-07T05:04:31.236Z,85.19
2023-06-07T05:06:59.790Z,85.23
2023-06-07T05:09:28.727Z,85.83
2023-06-07T05:11:57.276Z,85.70
2023-06-07T05:14:23.837Z,85.98
2023-06-07T05:16:50.283Z,86.03
2023-06-07T05:19:18.116Z,85.59
2023-06-07T05:21:44.655Z,85.19
2023-06-07T05:24:11.333Z,85.02
2023-06-07T05:26:38.179Z,85.28
2023-06-07T05:29:04.684Z,84.78
2023-06-07T05:31:31.875Z,85.07
2023-06-07T05:33:58.414Z,85.83
2023-06-07T05:36:24.986Z,85.80
2023-06-07T05:38:51.490Z,85.72
2023-06-07T05:41:18.244Z,85.93
2023-06-07T05:43:44.853Z,85.98
2023-06-07T05:46:12.660Z,85.89
2023-06-07T05:48:39.156Z,86.20
2023-06-07T05:51:08.342Z,86.46
2023-06-07T05:53:35.484Z,85.76
2023-06-07T05:56:02.318Z,85.37
2023-06-07T05:58:28.835Z,84.84
2023-06-07T06:00:55.545Z,84.67
2023-06-07T06:03:22.531Z,84.35
2023-06-07T06:05:49.171Z,84.14
2023-06-07T06:08:16.942Z,83.94
2023-06-07T06:10:45.936Z,82.81
2023-06-07T06:13:12.482Z,82.58
2023-06-07T06:15:39.143Z,82.26
2023-06-07T06:18:05.750Z,82.31
2023-06-07T06:20:35.544Z,82.20
2023-06-07T06:23:05.210Z,81.76
2023-06-07T06:25:32.420Z,79.99
2023-06-07T06:27:59.078Z,80.49
2023-06-07T06:30:27.428Z,80.60
2023-06-07T06:32:54.705Z,80.36
2023-06-07T06:35:21.384Z,80.04
2023-06-07T06:37:47.898Z,79.48
2023-06-07T06:40:14.530Z,79.89
2023-06-07T06:42:40.999Z,78.82
2023-06-07T06:45:08.219Z,78.35
2023-06-07T06:47:37.251Z,78.33
2023-06-07T06:50:09.603Z,78.04
2023-06-07T06:52:44.752Z,77.18
2023-06-07T06:55:11.307Z,76.91
2023-06-07T06:57:37.859Z,77.63
2023-06-07T07:00:07.736Z,77.63
2023-06-07T07:02:34.418Z,77.47
2023-06-07T07:05:02.282Z,77.83
2023-06-07T07:07:29.147Z,78.31
2023-06-07T07:09:55.798Z,77.91
2023-06-07T07:12:22.624Z,77.10
2023-06-07T07:14:49.178Z,76.39
2023-06-07T07:17:15.739Z,76.17
2023-06-07T07:19:42.441Z,76.07
2023-06-07T07:22:09.059Z,75.81
2023-06-07T07:24:35.866Z,76.44
2023-06-07T07:27:05.401Z,74.92
2023-06-07T07:29:31.939Z,75.01
2023-06-07T07:31:58.462Z,74.06
2023-06-07T07:34:25.213Z,73.69
2023-06-07T07:36:51.988Z,74.08
2023-06-07T07:39:19.152Z,74.82
2023-06-07T07:41:46.475Z,74.90
2023-06-07T07:44:12.988Z,74.74
2023-06-07T07:46:39.552Z,73.40
2023-06-07T07:49:06.104Z,73.83
2023-06-07T07:51:32.611Z,73.27
2023-06-07T07:53:59.085Z,74.12
2023-06-07T07:56:26.063Z,74.55
2023-06-07T07:58:52.604Z,74.24
2023-06-07T08:01:20.161Z,75.01
2023-06-07T08:03:47.898Z,73.39
2023-06-07T08:06:14.646Z,72.95
2023-06-07T08:08:41.408Z,73.09
2023-06-07T08:11:07.901Z,72.76
2023-06-07T08:13:34.470Z,73.46
2023-06-07T08:16:00.997Z,72.81
2023-06-07T08:18:27.617Z,72.48
2023-06-07T08:20:54.123Z,71.79
2023-06-07T08:23:20.682Z,71.51
2023-06-07T08:25:47.291Z,71.83
2023-06-07T08:28:13.785Z,71.49
2023-06-07T08:30:43.052Z,72.32
2023-06-07T08:33:09.633Z,70.86
2023-06-07T08:35:36.162Z,71.62
2023-06-07T08:38:02.643Z,70.46
2023-06-07T08:40:30.850Z,69.92
2023-06-07T08:42:58.339Z,69.56
2023-06-07T08:45:24.914Z,69.99
2023-06-07T08:47:52.890Z,69.32
2023-06-07T08:50:23.388Z,68.86
2023-06-07T08:52:54.686Z,66.30
2023-06-07T08:55:23.206Z,66.19
2023-06-07T08:57:53.519Z,65.76
2023-06-07T09:00:26.817Z,65.29
2023-06-07T09:02:56.660Z,65.63
2023-06-07T09:05:24.175Z,65.99
2023-06-07T09:07:51.155Z,63.16
2023-06-07T09:10:21.495Z,62.42
2023-06-07T09:12:49.378Z,62.56
2023-06-07T09:15:20.516Z,62.84
2023-06-07T09:18:01.095Z,62.46
2023-06-07T09:20:29.326Z,61.17
2023-06-07T09:23:10.146Z,61.37
2023-06-07T09:25:38.758Z,62.43
2023-06-07T09:28:10.276Z,60.54
2023-06-07T09:30:51.708Z,60.73
2023-06-07T09:33:29.157Z,60.82
2023-06-07T09:36:17.083Z,59.83
2023-06-07T09:38:43.945Z,59.76
2023-06-07T09:41:11.020Z,58.99
2023-06-07T09:43:47.615Z,57.89
2023-06-07T09:46:16.098Z,57.77
2023-06-07T09:48:46.271Z,58.47
2023-06-07T09:51:12.957Z,58.08
2023-06-07T09:53:53.772Z,57.93
2023-06-07T09:56:22.904Z,59.47
2023-06-07T09:59:06.862Z,57.53
2023-06-07T10:01:44.608Z,58.72
2023-06-07T10:04:12.462Z,57.15
2023-06-07T10:06:44.356Z,58.03
2023-06-07T10:09:11.663Z,57.54
2023-06-07T10:11:39.973Z,58.45
2023-06-07T10:14:07.233Z,58.28
2023-06-07T10:16:38.025Z,58.20
2023-06-07T10:19:14.622Z,57.28
2023-06-07T10:21:45.041Z,57.21
2023-06-07T10:24:17.285Z,58.14
2023-06-07T10:27:00.902Z,57.20
2023-06-07T10:29:41.083Z,58.05
2023-06-07T10:32:26.867Z,56.20
2023-06-07T10:34:56.321Z,56.09
2023-06-07T10:37:23.401Z,56.07
2023-06-07T10:39:50.275Z,55.67
2023-06-07T10:42:17.786Z,56.52
2023-06-07T10:44:44.976Z,56.46
2023-06-07T10:47:23.740Z,55.54
2023-06-07T10:49:52.009Z,56.36
2023-06-07T10:52:19.103Z,57.51
2023-06-07T10:54:46.450Z,56.60
2023-06-07T10:57:13.526Z,56.97
2023-06-07T10:59:40.797Z,56.08
2023-06-07T11:02:28.531Z,56.33
2023-06-07T11:04:59.838Z,55.89
2023-06-07T11:07:33.842Z,57.32
2023-06-07T11:10:06.771Z,54.95
2023-06-07T11:12:37.381Z,55.70
2023-06-07T11:15:23.241Z,55.89
2023-06-07T11:17:57.783Z,56.03
2023-06-07T11:20:37.138Z,56.61
2023-06-07T11:23:29.316Z,57.28
2023-06-07T11:25:57.338Z,54.30
2023-06-07T11:28:33.318Z,53.84
2023-06-07T11:31:01.752Z,54.63
2023-06-07T11:33:29.046Z,52.63
2023-06-07T11:35:56.554Z,52.96
2023-06-07T11:38:25.090Z,52.42
2023-06-07T11:40:51.762Z,55.20
2023-06-07T11:43:24.463Z,53.67
2023-06-07T11:45:51.976Z,54.03
2023-06-07T11:48:18.991Z,53.78
2023-06-07T11:50:45.630Z,53.70
2023-06-07T11:53:13.774Z,52.40
2023-06-07T11:55:40.904Z,52.83
2023-06-07T11:58:07.534Z,51.11
2023-06-07T12:00:36.703Z,50.32
2023-06-07T12:03:05.442Z,48.96
2023-06-07T12:05:32.628Z,48.74
2023-06-07T12:08:00.719Z,48.68
2023-06-07T12:10:31.570Z,50.19
2023-06-07T12:13:15.686Z,49.27
2023-06-07T12:15:44.188Z,48.44
2023-06-07T12:18:14.156Z,48.15
2023-06-07T12:20:45.176Z,48.94
2023-06-07T12:23:13.072Z,48.64
2023-06-07T12:25:41.359Z,49.02
2023-06-07T12:28:10.754Z,48.13
2023-06-07T12:30:44.229Z,48.35
2023-06-07T12:33:18.214Z,47.56
2023-06-07T12:35:49.054Z,49.20
2023-06-07T12:38:16.294Z,47.99
2023-06-07T12:40:43.079Z,47.35
2023-06-07T12:43:09.661Z,47.75
2023-06-07T12:45:36.551Z,48.29
2023-06-07T12:48:03.243Z,46.38
2023-06-07T12:50:29.835Z,46.90
2023-06-07T12:52:56.860Z,44.38
2023-06-07T12:55:23.725Z,45.25
2023-06-07T12:57:50.324Z,44.70
2023-06-07T13:00:17.968Z,44.53
2023-06-07T13:02:44.918Z,42.87
2023-06-07T13:05:12.702Z,42.82
2023-06-07T13:07:41.064Z,44.35
2023-06-07T13:10:11.705Z,44.15
2023-06-07T13:12:39.848Z,43.91
2023-06-07T13:15:06.940Z,43.29
2023-06-07T13:17:34.084Z,44.69
2023-06-07T13:20:01.178Z,42.49
2023-06-07T13:22:30.246Z,40.26
2023-06-07T13:24:58.498Z,41.77
2023-06-07T13:27:27.859Z,43.60
2023-06-07T13:29:55.127Z,43.44
2023-06-07T13:32:22.135Z,44.46
2023-06-07T13:34:48.760Z,44.63
2023-06-07T13:37:15.278Z,43.59
2023-06-07T13:39:41.919Z,44.74
2023-06-07T13:42:08.679Z,43.25
2023-06-07T13:44:35.244Z,43.70
2023-06-07T13:47:02.845Z,42.68
2023-06-07T13:49:29.593Z,42.81
2023-06-07T13:51:56.172Z,43.33
2023-06-07T13:54:22.751Z,41.68
2023-06-07T13:56:49.297Z,41.40
2023-06-07T13:59:15.853Z,41.59
2023-06-07T14:01:43.164Z,41.81
2023-06-07T14:04:09.893Z,40.45
2023-06-07T14:06:38.581Z,42.58
2023-06-07T14:09:05.260Z,41.56
2023-06-07T14:11:32.313Z,41.65
2023-06-07T14:13:58.918Z,41.07
2023-06-07T14:16:28.224Z,42.35
2023-06-07T14:18:55.258Z,42.63
2023-06-07T14:21:21.780Z,41.31
2023-06-07T14:23:48.338Z,42.78
2023-06-07T14:26:16.121Z,44.17
2023-06-07T14:28:44.936Z,42.49
2023-06-07T14:31:12.020Z,43.84
2023-06-07T14:33:38.734Z,43.25
2023-06-07T14:36:06.182Z,44.06
2023-06-07T14:38:32.818Z,43.47
2023-06-07T14:40:59.625Z,43.14
2023-06-07T14:43:26.171Z,43.57
2023-06-07T14:45:52.761Z,43.79
2023-06-07T14:48:19.326Z,44.32
2023-06-07T14:50:45.844Z,43.57
2023-06-07T14:53:12.471Z,43.04
2023-06-07T14:55:38.981Z,43.67
2023-06-07T14:58:06.854Z,44.96
2023-06-07T15:00:34.774Z,45.34
2023-06-07T15:03:01.476Z,45.74
2023-06-07T15:05:29.039Z,44.99
2023-06-07T15:07:56.038Z,46.09
2023-06-07T15:10:22.718Z,46.36
2023-06-07T15:12:49.436Z,45.37
2023-06-07T15:15:17.490Z,45.96
2023-06-07T15:17:45.237Z,46.46
2023-06-07T15:20:12.705Z,46.46
2023-06-07T15:22:39.226Z,47.77
2023-06-07T15:25:07.296Z,46.94
2023-06-07T15:27:34.411Z,47.08
2023-06-07T15:30:01.029Z,47.08
2023-06-07T15:32:27.615Z,47.78
2023-06-07T15:34:54.746Z,49.10
2023-06-07T15:37:21.493Z,48.52
2023-06-07T15:39:48.116Z,48.08
2023-06-07T15:42:15.016Z,48.90
2023-06-07T15:44:42.578Z,47.64
2023-06-07T15:47:10.942Z,47.42
2023-06-07T15:49:37.665Z,48.83
2023-06-07T15:52:04.691Z,48.96
2023-06-07T15:54:31.362Z,48.54
2023-06-07T15:56:57.844Z,48.21
2023-06-07T15:59:24.326Z,48.60
2023-06-07T16:01:50.952Z,49.29
2023-06-07T16:04:17.543Z,49.64
2023-06-07T16:06:44.194Z,49.98
2023-06-07T16:09:10.749Z,49.91
2023-06-07T16:11:42.480Z,50.40
2023-06-07T16:14:12.567Z,50.96
2023-06-07T16:16:40.014Z,50.51
2023-06-07T16:19:07.404Z,49.47
2023-06-07T16:21:34.426Z,49.90
2023-06-07T16:24:03.243Z,49.61
2023-06-07T16:26:30.035Z,50.24
2023-06-07T16:28:56.531Z,50.21
2023-06-07T16:31:24.092Z,50.45
2023-06-07T16:33:50.835Z,51.23
2023-06-07T16:36:18.428Z,51.52
2023-06-07T16:38:44.970Z,51.57
2023-06-07T16:41:11.559Z,51.64
2023-06-07T16:43:38.079Z,52.74
2023-06-07T16:46:04.623Z,52.55
2023-06-07T16:48:31.169Z,52.54
2023-06-07T16:50:57.696Z,53.16
2023-06-07T16:53:24.266Z,53.39
2023-06-07T16:55:50.958Z,53.19
2023-06-07T16:58:17.534Z,52.89
2023-06-07T17:00:44.050Z,53.25
2023-06-07T17:03:10.844Z,53.00
2023-06-07T17:05:37.485Z,53.37
2023-06-07T17:08:04.302Z,52.70
2023-06-07T17:10:37.128Z,53.29
2023-06-07T17:13:03.767Z,53.83
2023-06-07T17:15:30.305Z,52.43
2023-06-07T17:17:56.935Z,53.08
2023-06-07T17:20:23.535Z,52.52
2023-06-07T17:22:50.049Z,52.55
2023-06-07T17:25:16.564Z,52.42
2023-06-07T17:27:43.069Z,53.60
2023-06-07T17:30:09.976Z,53.51
2023-06-07T17:32:36.960Z,54.51
2023-06-07T17:35:03.919Z,55.16
2023-06-07T17:37:31.070Z,55.29
2023-06-07T17:39:57.612Z,55.68
2023-06-07T17:42:24.178Z,55.93
2023-06-07T17:44:52.298Z,56.52
2023-06-07T17:47:19.855Z,56.70
2023-06-07T17:49:46.417Z,57.03
2023-06-07T17:52:21.558Z,56.46
2023-06-07T17:54:49.286Z,54.34
2023-06-07T17:57:15.792Z,54.32
2023-06-07T17:59:42.270Z,52.55
2023-06-07T18:02:10.426Z,52.33
2023-06-07T18:04:37.461Z,53.35
2023-06-07T18:07:07.261Z,53.38
2023-06-07T18:09:34.049Z,51.11
2023-06-07T18:12:00.682Z,49.93
2023-06-07T18:14:27.791Z,49.85
2023-06-07T18:16:54.512Z,49.55
2023-06-07T18:19:21.057Z,47.41
2023-06-07T18:21:47.593Z,44.71
2023-06-07T18:24:14.372Z,43.70
2023-06-07T18:26:41.074Z,43.75
2023-06-07T18:29:07.683Z,43.90
2023-06-07T18:31:34.173Z,44.26
2023-06-07T18:34:00.975Z,43.74
2023-06-07T18:36:27.479Z,43.40
2023-06-07T18:38:54.075Z,42.82
2023-06-07T18:41:20.634Z,43.63
2023-06-07T18:43:47.160Z,45.38
2023-06-07T18:46:13.729Z,46.87
2023-06-07T18:48:40.304Z,49.02
2023-06-07T18:51:06.941Z,50.92
2023-06-07T18:53:33.661Z,51.78
2023-06-07T18:56:00.458Z,53.22
2023-06-07T18:58:27.082Z,53.58
2023-06-07T19:00:54.388Z,53.93
2023-06-07T19:03:22.446Z,54.27
2023-06-07T19:05:49.139Z,54.47
2023-06-07T19:08:15.730Z,54.74
2023-06-07T19:10:42.299Z,54.67
2023-06-07T19:13:08.802Z,55.42
2023-06-07T19:15:35.285Z,55.60
2023-06-07T19:18:05.852Z,55.86
2023-06-07T19:20:34.187Z,56.13
2023-06-07T19:23:00.733Z,57.19
2023-06-07T19:25:27.402Z,57.49
2023-06-07T19:27:53.911Z,57.21
2023-06-07T19:30:20.526Z,57.19
2023-06-07T19:32:47.236Z,57.54
2023-06-07T19:35:13.875Z,57.55
2023-06-07T19:37:40.647Z,57.74
2023-06-07T19:40:09.091Z,58.20
2023-06-07T19:42:37.312Z,58.07
2023-06-07T19:45:04.705Z,58.37
2023-06-07T19:47:32.610Z,58.79
2023-06-07T19:49:59.245Z,58.81
2023-06-07T19:52:28.806Z,59.35
2023-06-07T19:54:55.453Z,59.62
2023-06-07T19:57:22.500Z,59.72
2023-06-07T19:59:49.339Z,60.03
2023-06-07T20:02:16.760Z,60.37
2023-06-07T20:04:44.154Z,60.49
2023-06-07T20:07:11.997Z,60.88
2023-06-07T20:09:40.321Z,60.75
2023-06-07T20:12:07.991Z,61.39
2023-06-07T20:14:36.194Z,61.74
2023-06-07T20:17:02.953Z,61.43
2023-06-07T20:19:29.484Z,61.93
2023-06-07T20:21:56.127Z,61.97
2023-06-07T20:24:22.662Z,62.27
2023-06-07T20:26:49.250Z,62.32
2023-06-07T20:29:15.923Z,62.65
2023-06-07T20:31:44.056Z,62.79
2023-06-07T20:34:11.041Z,63.20
2023-06-07T20:36:38.667Z,63.30
2023-06-07T20:39:05.268Z,63.59
2023-06-07T20:41:33.057Z,63.68
2023-06-07T20:43:59.547Z,63.89
2023-06-07T20:46:27.046Z,63.98
2023-06-07T20:48:55.134Z,64.08
2023-06-07T20:51:22.023Z,64.50
2023-06-07T20:53:49.773Z,64.70
2023-06-07T20:56:19.387Z,64.34
2023-06-07T20:58:46.061Z,65.10
2023-06-07T21:01:12.650Z,65.45
2023-06-07T21:03:40.979Z,65.63
2023-06-07T21:06:07.555Z,65.86
2023-06-07T21:08:36.357Z,65.41
2023-06-07T21:11:03.799Z,65.95
2023-06-07T21:13:31.064Z,65.89
2023-06-07T21:16:00.444Z,66.29
2023-06-07T21:18:28.294Z,66.65
2023-06-07T21:20:55.018Z,66.81
2023-06-07T21:23:21.624Z,67.02
2023-06-07T21:25:48.603Z,67.29
2023-06-07T21:28:15.197Z,67.31
2023-06-07T21:30:41.779Z,67.24
2023-06-07T21:33:08.299Z,67.69
2023-06-07T21:35:34.855Z,67.98
2023-06-07T21:38:01.426Z,68.11
2023-06-07T21:40:32.180Z,68.60
2023-06-07T21:42:58.770Z,68.63
2023-06-07T21:45:27.611Z,68.47
2023-06-07T21:47:54.327Z,68.24
2023-06-07T21:50:21.051Z,69.17
2023-06-07T21:52:47.568Z,69.15
2023-06-07T21:55:14.319Z,68.96
2023-06-07T21:57:40.864Z,69.23
2023-06-07T22:00:12.212Z,69.50
2023-06-07T22:02:39.088Z,69.52
2023-06-07T22:05:06.670Z,69.56
2023-06-07T22:07:33.140Z,69.92
2023-06-07T22:10:00.577Z,70.12
2023-06-07T22:12:29.520Z,70.16
2023-06-07T22:15:01.810Z,70.21
2023-06-07T22:17:29.646Z,70.38
2023-06-07T22:19:57.122Z,70.60
2023-06-07T22:22:23.904Z,70.73
2023-06-07T22:24:50.725Z,71.03
2023-06-07T22:27:17.281Z,70.95
2023-06-07T22:29:47.266Z,70.97
2023-06-07T22:32:15.504Z,70.66
2023-06-07T22:34:45.935Z,70.93
2023-06-07T22:37:14.108Z,71.02
2023-06-07T22:39:42.351Z,71.22
2023-06-07T22:42:08.967Z,71.05
2023-06-07T22:44:38.203Z,70.84
2023-06-07T22:47:08.012Z,70.72
2023-06-07T22:49:37.303Z,71.55
2023-06-07T22:52:05.920Z,71.59
2023-06-07T22:54:32.424Z,71.74
2023-06-07T22:56:58.938Z,71.72
2023-06-07T22:59:26.417Z,71.84
2023-06-07T23:01:54.714Z,71.66
2023-06-07T23:04:21.676Z,71.89
2023-06-07T23:06:49.047Z,72.19
2023-06-07T23:09:16.028Z,72.40
2023-06-07T23:11:42.837Z,72.02
2023-06-07T23:14:09.564Z,72.41
2023-06-07T23:16:36.408Z,72.25
2023-06-07T23:19:04.692Z,72.07
2023-06-07T23:21:32.432Z,72.44
2023-06-07T23:23:59.135Z,72.85
2023-06-07T23:26:26.389Z,73.02
2023-06-07T23:28:53.106Z,73.10
2023-06-07T23:31:19.792Z,73.29
2023-06-07T23:33:46.400Z,73.38
2023-06-07T23:36:14.530Z,73.62
2023-06-07T23:38:41.097Z,73.48
2023-06-07T23:41:07.698Z,73.52
2023-06-07T23:43:34.209Z,73.64
2023-06-07T23:46:00.947Z,73.41
2023-06-07T23:48:28.660Z,74.34
2023-06-07T23:50:56.028Z,74.73
2023-06-07T23:53:22.634Z,75.15
2023-06-07T23:55:49.133Z,75.02
2023-06-07T23:58:15.631Z,74.81
